sensor_id;sensor_type;location;lat;lon;timestamp;P1;durP1;ratioP1;P2;durP2;ratioP2
19758;SDS011;10038;42.662;23.278;2022-10-16T00:01:42;7.87;;;4.30;;
19758;SDS011;10038;42.662;23.278;2022-10-16T00:04:09;9.40;;;4.47;;
19758;SDS011;10038;42.662;23.278;2022-10-16T00:06:37;7.20;;;4.17;;
19758;SDS011;10038;42.662;23.278;2022-10-16T00:09:04;5.80;;;4.10;;
19758;SDS011;10038;42.662;23.278;2022-10-16T00:11:32;5.83;;;4.47;;
19758;SDS011;10038;42.662;23.278;2022-10-16T00:14:02;8.10;;;4.27;;
19758;SDS011;10038;42.662;23.278;2022-10-16T00:16:30;7.43;;;4.30;;
19758;SDS011;10038;42.662;23.278;2022-10-16T00:18:58;7.33;;;4.53;;
19758;SDS011;10038;42.662;23.278;2022-10-16T00:21:25;9.13;;;4.17;;
19758;SDS011;10038;42.662;23.278;2022-10-16T00:23:55;4.50;;;3.33;;
19758;SDS011;10038;42.662;23.278;2022-10-16T00:26:24;8.00;;;4.43;;
19758;SDS011;10038;42.662;23.278;2022-10-16T00:28:51;9.90;;;4.43;;
19758;SDS011;10038;42.662;23.278;2022-10-16T00:31:19;9.70;;;4.07;;
19758;SDS011;10038;42.662;23.278;2022-10-16T00:33:47;9.33;;;5.00;;
19758;SDS011;10038;42.662;23.278;2022-10-16T00:36:14;9.60;;;4.20;;
19758;SDS011;10038;42.662;23.278;2022-10-16T00:38:42;8.67;;;4.17;;
19758;SDS011;10038;42.662;23.278;2022-10-16T00:41:12;7.30;;;3.80;;
19758;SDS011;10038;42.662;23.278;2022-10-16T00:43:42;7.00;;;4.93;;
19758;SDS011;10038;42.662;23.278;2022-10-16T00:46:11;6.47;;;4.13;;
19758;SDS011;10038;42.662;23.278;2022-10-16T00:48:42;6.33;;;3.77;;
19758;SDS011;10038;42.662;23.278;2022-10-16T00:51:13;7.37;;;4.00;;
19758;SDS011;10038;42.662;23.278;2022-10-16T00:53:40;5.80;;;4.00;;
19758;SDS011;10038;42.662;23.278;2022-10-16T00:56:07;5.90;;;3.90;;
19758;SDS011;10038;42.662;23.278;2022-10-16T00:58:35;4.70;;;3.77;;
19758;SDS011;10038;42.662;23.278;2022-10-16T01:01:02;7.53;;;4.07;;
19758;SDS011;10038;42.662;23.278;2022-10-16T01:03:30;6.27;;;4.03;;
19758;SDS011;10038;42.662;23.278;2022-10-16T01:06:05;4.73;;;3.33;;
19758;SDS011;10038;42.662;23.278;2022-10-16T01:08:44;6.83;;;3.50;;
19758;SDS011;10038;42.662;23.278;2022-10-16T01:11:20;4.30;;;3.83;;
19758;SDS011;10038;42.662;23.278;2022-10-16T01:13:54;6.10;;;3.23;;
19758;SDS011;10038;42.662;23.278;2022-10-16T01:16:27;7.70;;;3.70;;
19758;SDS011;10038;42.662;23.278;2022-10-16T01:19:00;7.60;;;4.20;;
19758;SDS011;10038;42.662;23.278;2022-10-16T01:21:36;6.27;;;3.20;;
19758;SDS011;10038;42.662;23.278;2022-10-16T01:24:07;5.13;;;3.93;;
19758;SDS011;10038;42.662;23.278;2022-10-16T01:29:34;12.80;;;4.70;;
19758;SDS011;10038;42.662;23.278;2022-10-16T01:32:07;6.80;;;3.37;;
19758;SDS011;10038;42.662;23.278;2022-10-16T01:34:41;5.60;;;3.50;;
19758;SDS011;10038;42.662;23.278;2022-10-16T01:37:14;4.83;;;3.43;;
19758;SDS011;10038;42.662;23.278;2022-10-16T01:39:47;6.70;;;3.63;;
19758;SDS011;10038;42.662;23.278;2022-10-16T01:42:20;7.17;;;3.37;;
19758;SDS011;10038;42.662;23.278;2022-10-16T01:44:50;6.63;;;3.17;;
19758;SDS011;10038;42.662;23.278;2022-10-16T01:47:18;7.37;;;4.07;;
19758;SDS011;10038;42.662;23.278;2022-10-16T01:49:48;6.80;;;3.10;;
19758;SDS011;10038;42.662;23.278;2022-10-16T01:52:17;7.47;;;4.23;;
19758;SDS011;10038;42.662;23.278;2022-10-16T01:54:49;3.47;;;3.17;;
19758;SDS011;10038;42.662;23.278;2022-10-16T01:57:20;5.20;;;2.80;;
19758;SDS011;10038;42.662;23.278;2022-10-16T01:59:50;5.77;;;3.07;;
19758;SDS011;10038;42.662;23.278;2022-10-16T02:02:21;4.80;;;3.50;;
19758;SDS011;10038;42.662;23.278;2022-10-16T02:04:49;3.70;;;3.30;;
19758;SDS011;10038;42.662;23.278;2022-10-16T02:07:20;8.53;;;3.40;;
19758;SDS011;10038;42.662;23.278;2022-10-16T02:09:48;9.27;;;4.07;;
19758;SDS011;10038;42.662;23.278;2022-10-16T02:12:16;5.37;;;3.43;;
19758;SDS011;10038;42.662;23.278;2022-10-16T02:14:50;6.83;;;3.30;;
19758;SDS011;10038;42.662;23.278;2022-10-16T02:17:18;7.77;;;4.23;;
19758;SDS011;10038;42.662;23.278;2022-10-16T02:19:45;5.83;;;3.47;;
19758;SDS011;10038;42.662;23.278;2022-10-16T02:22:15;8.40;;;3.37;;
19758;SDS011;10038;42.662;23.278;2022-10-16T02:24:49;4.17;;;2.97;;
19758;SDS011;10038;42.662;23.278;2022-10-16T02:27:22;5.53;;;3.83;;
19758;SDS011;10038;42.662;23.278;2022-10-16T02:29:53;12.17;;;4.03;;
19758;SDS011;10038;42.662;23.278;2022-10-16T02:32:27;6.90;;;3.70;;
19758;SDS011;10038;42.662;23.278;2022-10-16T02:34:57;6.77;;;4.07;;
19758;SDS011;10038;42.662;23.278;2022-10-16T02:37:26;7.87;;;3.80;;
19758;SDS011;10038;42.662;23.278;2022-10-16T02:39:55;10.77;;;2.73;;
19758;SDS011;10038;42.662;23.278;2022-10-16T02:42:28;6.10;;;3.20;;
19758;SDS011;10038;42.662;23.278;2022-10-16T02:44:58;5.97;;;3.83;;
19758;SDS011;10038;42.662;23.278;2022-10-16T02:47:25;8.10;;;4.07;;
19758;SDS011;10038;42.662;23.278;2022-10-16T02:49:52;5.50;;;3.57;;
19758;SDS011;10038;42.662;23.278;2022-10-16T02:52:19;8.57;;;3.60;;
19758;SDS011;10038;42.662;23.278;2022-10-16T02:54:45;4.50;;;3.23;;
19758;SDS011;10038;42.662;23.278;2022-10-16T02:57:12;4.70;;;2.97;;
19758;SDS011;10038;42.662;23.278;2022-10-16T02:59:40;6.80;;;3.43;;
19758;SDS011;10038;42.662;23.278;2022-10-16T03:02:07;7.00;;;3.40;;
19758;SDS011;10038;42.662;23.278;2022-10-16T03:04:34;6.10;;;3.47;;
19758;SDS011;10038;42.662;23.278;2022-10-16T03:07:01;6.60;;;4.53;;
19758;SDS011;10038;42.662;23.278;2022-10-16T03:09:28;5.23;;;4.40;;
19758;SDS011;10038;42.662;23.278;2022-10-16T03:11:55;6.60;;;4.20;;
19758;SDS011;10038;42.662;23.278;2022-10-16T03:14:22;5.57;;;3.80;;
19758;SDS011;10038;42.662;23.278;2022-10-16T03:16:50;7.10;;;3.97;;
19758;SDS011;10038;42.662;23.278;2022-10-16T03:19:17;5.20;;;3.60;;
19758;SDS011;10038;42.662;23.278;2022-10-16T03:21:44;4.90;;;3.57;;
19758;SDS011;10038;42.662;23.278;2022-10-16T03:24:11;5.87;;;3.63;;
19758;SDS011;10038;42.662;23.278;2022-10-16T03:26:38;9.30;;;4.27;;
19758;SDS011;10038;42.662;23.278;2022-10-16T03:29:04;7.60;;;4.17;;
19758;SDS011;10038;42.662;23.278;2022-10-16T03:31:31;5.87;;;4.47;;
19758;SDS011;10038;42.662;23.278;2022-10-16T03:34:00;6.97;;;3.90;;
19758;SDS011;10038;42.662;23.278;2022-10-16T03:36:26;6.17;;;3.70;;
19758;SDS011;10038;42.662;23.278;2022-10-16T03:38:53;6.83;;;4.70;;
19758;SDS011;10038;42.662;23.278;2022-10-16T03:41:20;9.73;;;4.37;;
19758;SDS011;10038;42.662;23.278;2022-10-16T03:43:46;5.13;;;3.90;;
19758;SDS011;10038;42.662;23.278;2022-10-16T03:46:13;6.10;;;3.53;;
19758;SDS011;10038;42.662;23.278;2022-10-16T03:48:40;4.60;;;3.53;;
19758;SDS011;10038;42.662;23.278;2022-10-16T03:51:08;7.57;;;4.63;;
19758;SDS011;10038;42.662;23.278;2022-10-16T03:53:35;7.63;;;5.33;;
19758;SDS011;10038;42.662;23.278;2022-10-16T03:56:01;5.70;;;4.03;;
19758;SDS011;10038;42.662;23.278;2022-10-16T03:58:28;6.10;;;4.93;;
19758;SDS011;10038;42.662;23.278;2022-10-16T04:00:55;6.23;;;4.40;;
19758;SDS011;10038;42.662;23.278;2022-10-16T04:03:22;8.33;;;5.23;;
19758;SDS011;10038;42.662;23.278;2022-10-16T04:05:48;8.50;;;5.17;;
19758;SDS011;10038;42.662;23.278;2022-10-16T04:08:17;5.90;;;4.77;;
19758;SDS011;10038;42.662;23.278;2022-10-16T04:10:43;7.13;;;5.50;;
19758;SDS011;10038;42.662;23.278;2022-10-16T04:13:10;7.50;;;4.90;;
19758;SDS011;10038;42.662;23.278;2022-10-16T04:15:37;5.63;;;4.03;;
19758;SDS011;10038;42.662;23.278;2022-10-16T04:18:04;8.67;;;4.60;;
19758;SDS011;10038;42.662;23.278;2022-10-16T04:20:32;6.43;;;4.13;;
19758;SDS011;10038;42.662;23.278;2022-10-16T04:22:59;8.37;;;5.00;;
19758;SDS011;10038;42.662;23.278;2022-10-16T04:25:27;8.93;;;4.40;;
19758;SDS011;10038;42.662;23.278;2022-10-16T04:27:54;8.20;;;4.17;;
19758;SDS011;10038;42.662;23.278;2022-10-16T04:30:21;7.70;;;4.80;;
19758;SDS011;10038;42.662;23.278;2022-10-16T04:32:48;9.10;;;4.17;;
19758;SDS011;10038;42.662;23.278;2022-10-16T04:35:15;11.10;;;5.20;;
19758;SDS011;10038;42.662;23.278;2022-10-16T04:37:42;7.77;;;4.40;;
19758;SDS011;10038;42.662;23.278;2022-10-16T04:40:09;8.90;;;4.63;;
19758;SDS011;10038;42.662;23.278;2022-10-16T04:42:37;6.97;;;4.73;;
19758;SDS011;10038;42.662;23.278;2022-10-16T04:45:04;7.13;;;4.67;;
19758;SDS011;10038;42.662;23.278;2022-10-16T04:47:32;8.37;;;4.93;;
19758;SDS011;10038;42.662;23.278;2022-10-16T04:49:59;11.17;;;6.10;;
19758;SDS011;10038;42.662;23.278;2022-10-16T04:52:26;9.60;;;5.67;;
19758;SDS011;10038;42.662;23.278;2022-10-16T04:54:53;11.33;;;6.27;;
19758;SDS011;10038;42.662;23.278;2022-10-16T04:57:21;10.90;;;5.87;;
19758;SDS011;10038;42.662;23.278;2022-10-16T04:59:49;9.83;;;6.10;;
19758;SDS011;10038;42.662;23.278;2022-10-16T05:02:16;6.50;;;5.83;;
19758;SDS011;10038;42.662;23.278;2022-10-16T05:04:42;7.23;;;5.23;;
19758;SDS011;10038;42.662;23.278;2022-10-16T05:07:09;12.30;;;5.87;;
19758;SDS011;10038;42.662;23.278;2022-10-16T05:09:36;10.03;;;5.97;;
19758;SDS011;10038;42.662;23.278;2022-10-16T05:12:03;8.00;;;5.60;;
19758;SDS011;10038;42.662;23.278;2022-10-16T05:14:29;9.70;;;5.10;;
19758;SDS011;10038;42.662;23.278;2022-10-16T05:16:58;10.17;;;5.73;;
19758;SDS011;10038;42.662;23.278;2022-10-16T05:19:25;8.47;;;5.00;;
19758;SDS011;10038;42.662;23.278;2022-10-16T05:21:52;12.33;;;5.40;;
19758;SDS011;10038;42.662;23.278;2022-10-16T05:24:19;9.30;;;5.37;;
19758;SDS011;10038;42.662;23.278;2022-10-16T05:26:45;8.40;;;5.83;;
19758;SDS011;10038;42.662;23.278;2022-10-16T05:29:12;12.50;;;6.57;;
19758;SDS011;10038;42.662;23.278;2022-10-16T05:31:39;7.33;;;5.03;;
19758;SDS011;10038;42.662;23.278;2022-10-16T05:34:07;10.97;;;5.87;;
19758;SDS011;10038;42.662;23.278;2022-10-16T05:36:34;12.73;;;5.97;;
19758;SDS011;10038;42.662;23.278;2022-10-16T05:39:01;10.40;;;5.77;;
19758;SDS011;10038;42.662;23.278;2022-10-16T05:41:27;11.53;;;5.33;;
19758;SDS011;10038;42.662;23.278;2022-10-16T05:43:54;9.90;;;5.50;;
19758;SDS011;10038;42.662;23.278;2022-10-16T05:46:21;10.87;;;5.53;;
19758;SDS011;10038;42.662;23.278;2022-10-16T05:48:47;9.50;;;6.27;;
19758;SDS011;10038;42.662;23.278;2022-10-16T05:51:16;8.60;;;4.90;;
19758;SDS011;10038;42.662;23.278;2022-10-16T05:53:42;9.60;;;5.70;;
19758;SDS011;10038;42.662;23.278;2022-10-16T05:56:10;10.53;;;5.60;;
19758;SDS011;10038;42.662;23.278;2022-10-16T05:58:37;9.60;;;6.10;;
19758;SDS011;10038;42.662;23.278;2022-10-16T06:01:06;12.97;;;5.53;;
19758;SDS011;10038;42.662;23.278;2022-10-16T06:03:35;7.97;;;5.70;;
19758;SDS011;10038;42.662;23.278;2022-10-16T06:06:06;8.33;;;5.03;;
19758;SDS011;10038;42.662;23.278;2022-10-16T06:08:36;11.20;;;6.77;;
19758;SDS011;10038;42.662;23.278;2022-10-16T06:11:03;8.80;;;6.27;;
19758;SDS011;10038;42.662;23.278;2022-10-16T06:13:31;9.73;;;6.20;;
19758;SDS011;10038;42.662;23.278;2022-10-16T06:15:58;12.53;;;6.70;;
19758;SDS011;10038;42.662;23.278;2022-10-16T06:18:26;8.90;;;5.90;;
19758;SDS011;10038;42.662;23.278;2022-10-16T06:20:54;9.77;;;6.50;;
19758;SDS011;10038;42.662;23.278;2022-10-16T06:23:20;11.70;;;7.20;;
19758;SDS011;10038;42.662;23.278;2022-10-16T06:25:48;11.53;;;6.70;;
19758;SDS011;10038;42.662;23.278;2022-10-16T06:28:15;12.83;;;7.27;;
19758;SDS011;10038;42.662;23.278;2022-10-16T06:30:42;10.43;;;7.13;;
19758;SDS011;10038;42.662;23.278;2022-10-16T06:33:09;11.67;;;7.20;;
19758;SDS011;10038;42.662;23.278;2022-10-16T06:35:36;14.90;;;6.97;;
19758;SDS011;10038;42.662;23.278;2022-10-16T06:38:02;11.70;;;6.90;;
19758;SDS011;10038;42.662;23.278;2022-10-16T06:40:29;10.00;;;7.07;;
19758;SDS011;10038;42.662;23.278;2022-10-16T06:42:58;10.73;;;7.00;;
19758;SDS011;10038;42.662;23.278;2022-10-16T06:45:24;12.50;;;7.13;;
19758;SDS011;10038;42.662;23.278;2022-10-16T06:47:51;13.10;;;7.10;;
19758;SDS011;10038;42.662;23.278;2022-10-16T06:50:18;13.77;;;6.63;;
19758;SDS011;10038;42.662;23.278;2022-10-16T06:52:44;12.60;;;7.37;;
19758;SDS011;10038;42.662;23.278;2022-10-16T06:55:11;7.73;;;5.23;;
19758;SDS011;10038;42.662;23.278;2022-10-16T06:57:38;10.47;;;6.83;;
19758;SDS011;10038;42.662;23.278;2022-10-16T07:00:07;14.03;;;6.47;;
19758;SDS011;10038;42.662;23.278;2022-10-16T07:02:34;11.37;;;6.07;;
19758;SDS011;10038;42.662;23.278;2022-10-16T07:05:01;8.63;;;5.50;;
19758;SDS011;10038;42.662;23.278;2022-10-16T07:07:28;9.40;;;5.53;;
19758;SDS011;10038;42.662;23.278;2022-10-16T07:09:55;8.50;;;6.10;;
19758;SDS011;10038;42.662;23.278;2022-10-16T07:12:21;9.93;;;5.50;;
19758;SDS011;10038;42.662;23.278;2022-10-16T07:14:48;7.60;;;4.53;;
19758;SDS011;10038;42.662;23.278;2022-10-16T07:17:18;6.23;;;5.20;;
19758;SDS011;10038;42.662;23.278;2022-10-16T07:19:45;5.97;;;4.93;;
19758;SDS011;10038;42.662;23.278;2022-10-16T07:22:11;5.00;;;4.50;;
19758;SDS011;10038;42.662;23.278;2022-10-16T07:24:38;5.73;;;4.20;;
19758;SDS011;10038;42.662;23.278;2022-10-16T07:27:05;5.37;;;4.57;;
19758;SDS011;10038;42.662;23.278;2022-10-16T07:29:32;5.27;;;3.90;;
19758;SDS011;10038;42.662;23.278;2022-10-16T07:31:59;5.10;;;4.07;;
19758;SDS011;10038;42.662;23.278;2022-10-16T07:34:27;5.30;;;4.77;;
19758;SDS011;10038;42.662;23.278;2022-10-16T07:36:53;5.30;;;4.60;;
19758;SDS011;10038;42.662;23.278;2022-10-16T07:39:20;6.47;;;4.50;;
19758;SDS011;10038;42.662;23.278;2022-10-16T07:41:48;5.53;;;5.00;;
19758;SDS011;10038;42.662;23.278;2022-10-16T07:44:15;5.80;;;4.37;;
19758;SDS011;10038;42.662;23.278;2022-10-16T07:46:42;4.33;;;3.93;;
19758;SDS011;10038;42.662;23.278;2022-10-16T07:49:09;4.40;;;3.97;;
19758;SDS011;10038;42.662;23.278;2022-10-16T07:51:37;3.73;;;3.43;;
19758;SDS011;10038;42.662;23.278;2022-10-16T07:54:04;4.60;;;3.77;;
19758;SDS011;10038;42.662;23.278;2022-10-16T07:56:32;5.17;;;4.43;;
19758;SDS011;10038;42.662;23.278;2022-10-16T07:58:58;5.67;;;5.17;;
19758;SDS011;10038;42.662;23.278;2022-10-16T08:01:25;6.23;;;4.73;;
19758;SDS011;10038;42.662;23.278;2022-10-16T08:03:52;5.00;;;4.50;;
19758;SDS011;10038;42.662;23.278;2022-10-16T08:06:20;6.70;;;4.33;;
19758;SDS011;10038;42.662;23.278;2022-10-16T08:08:49;5.17;;;4.47;;
19758;SDS011;10038;42.662;23.278;2022-10-16T08:11:16;5.47;;;4.60;;
19758;SDS011;10038;42.662;23.278;2022-10-16T08:13:42;6.67;;;5.63;;
19758;SDS011;10038;42.662;23.278;2022-10-16T08:16:09;6.20;;;5.60;;
19758;SDS011;10038;42.662;23.278;2022-10-16T08:18:36;7.13;;;5.83;;
19758;SDS011;10038;42.662;23.278;2022-10-16T08:21:04;6.50;;;5.57;;
19758;SDS011;10038;42.662;23.278;2022-10-16T08:23:32;6.03;;;5.43;;
19758;SDS011;10038;42.662;23.278;2022-10-16T08:26:03;7.00;;;4.83;;
19758;SDS011;10038;42.662;23.278;2022-10-16T08:28:31;5.03;;;4.07;;
19758;SDS011;10038;42.662;23.278;2022-10-16T08:31:04;4.77;;;3.60;;
19758;SDS011;10038;42.662;23.278;2022-10-16T08:33:31;4.87;;;3.93;;
19758;SDS011;10038;42.662;23.278;2022-10-16T08:36:00;4.40;;;4.00;;
19758;SDS011;10038;42.662;23.278;2022-10-16T08:38:27;5.47;;;4.37;;
19758;SDS011;10038;42.662;23.278;2022-10-16T08:40:53;5.67;;;4.37;;
19758;SDS011;10038;42.662;23.278;2022-10-16T08:43:33;4.43;;;4.03;;
19758;SDS011;10038;42.662;23.278;2022-10-16T08:46:19;3.90;;;3.00;;
19758;SDS011;10038;42.662;23.278;2022-10-16T08:49:01;4.10;;;3.70;;
19758;SDS011;10038;42.662;23.278;2022-10-16T08:51:29;4.40;;;4.00;;
19758;SDS011;10038;42.662;23.278;2022-10-16T08:53:59;3.90;;;3.60;;
19758;SDS011;10038;42.662;23.278;2022-10-16T08:56:29;4.80;;;3.50;;
19758;SDS011;10038;42.662;23.278;2022-10-16T08:58:57;4.13;;;3.07;;
19758;SDS011;10038;42.662;23.278;2022-10-16T09:01:27;5.70;;;4.23;;
19758;SDS011;10038;42.662;23.278;2022-10-16T09:04:20;3.90;;;3.17;;
19758;SDS011;10038;42.662;23.278;2022-10-16T09:07:08;3.80;;;2.60;;
19758;SDS011;10038;42.662;23.278;2022-10-16T09:09:45;2.53;;;2.33;;
19758;SDS011;10038;42.662;23.278;2022-10-16T09:12:28;2.20;;;2.00;;
19758;SDS011;10038;42.662;23.278;2022-10-16T09:15:11;2.43;;;2.23;;
19758;SDS011;10038;42.662;23.278;2022-10-16T09:17:45;3.10;;;2.50;;
19758;SDS011;10038;42.662;23.278;2022-10-16T09:25:52;2.60;;;2.40;;
19758;SDS011;10038;42.662;23.278;2022-10-16T09:28:20;4.00;;;2.03;;
19758;SDS011;10038;42.662;23.278;2022-10-16T09:30:48;2.40;;;2.20;;
19758;SDS011;10038;42.662;23.278;2022-10-16T09:33:15;2.33;;;2.03;;
19758;SDS011;10038;42.662;23.278;2022-10-16T09:35:44;2.57;;;2.00;;
19758;SDS011;10038;42.662;23.278;2022-10-16T09:38:25;3.03;;;2.53;;
19758;SDS011;10038;42.662;23.278;2022-10-16T09:40:55;2.10;;;1.90;;
19758;SDS011;10038;42.662;23.278;2022-10-16T09:43:24;2.63;;;2.30;;
19758;SDS011;10038;42.662;23.278;2022-10-16T09:45:58;2.53;;;2.23;;
19758;SDS011;10038;42.662;23.278;2022-10-16T09:48:27;2.50;;;2.30;;
19758;SDS011;10038;42.662;23.278;2022-10-16T09:50:57;3.23;;;2.20;;
19758;SDS011;10038;42.662;23.278;2022-10-16T09:53:25;2.90;;;2.10;;
19758;SDS011;10038;42.662;23.278;2022-10-16T09:56:03;2.30;;;2.10;;
19758;SDS011;10038;42.662;23.278;2022-10-16T09:58:31;2.20;;;2.00;;
19758;SDS011;10038;42.662;23.278;2022-10-16T10:01:00;2.07;;;1.87;;
19758;SDS011;10038;42.662;23.278;2022-10-16T10:03:33;3.70;;;1.90;;
19758;SDS011;10038;42.662;23.278;2022-10-16T10:06:06;3.70;;;1.90;;
19758;SDS011;10038;42.662;23.278;2022-10-16T10:08:52;2.20;;;2.00;;
19758;SDS011;10038;42.662;23.278;2022-10-16T10:14:17;2.27;;;2.07;;
19758;SDS011;10038;42.662;23.278;2022-10-16T10:16:48;4.53;;;2.07;;
19758;SDS011;10038;42.662;23.278;2022-10-16T10:19:17;2.50;;;2.00;;
19758;SDS011;10038;42.662;23.278;2022-10-16T10:21:44;2.00;;;1.80;;
19758;SDS011;10038;42.662;23.278;2022-10-16T10:24:12;3.80;;;2.30;;
19758;SDS011;10038;42.662;23.278;2022-10-16T10:26:40;2.10;;;1.90;;
19758;SDS011;10038;42.662;23.278;2022-10-16T10:29:14;2.20;;;1.60;;
19758;SDS011;10038;42.662;23.278;2022-10-16T10:31:51;2.47;;;1.90;;
19758;SDS011;10038;42.662;23.278;2022-10-16T10:34:30;2.57;;;1.90;;
19758;SDS011;10038;42.662;23.278;2022-10-16T10:37:22;2.67;;;1.97;;
19758;SDS011;10038;42.662;23.278;2022-10-16T10:40:08;2.77;;;1.90;;
19758;SDS011;10038;42.662;23.278;2022-10-16T10:42:43;2.50;;;2.03;;
19758;SDS011;10038;42.662;23.278;2022-10-16T10:45:18;2.53;;;1.80;;
19758;SDS011;10038;42.662;23.278;2022-10-16T10:48:10;2.83;;;2.00;;
19758;SDS011;10038;42.662;23.278;2022-10-16T10:50:56;2.97;;;1.87;;
19758;SDS011;10038;42.662;23.278;2022-10-16T10:53:33;2.03;;;1.93;;
19758;SDS011;10038;42.662;23.278;2022-10-16T10:56:15;2.07;;;1.87;;
19758;SDS011;10038;42.662;23.278;2022-10-16T10:59:02;2.30;;;2.00;;
19758;SDS011;10038;42.662;23.278;2022-10-16T11:01:45;2.33;;;1.70;;
19758;SDS011;10038;42.662;23.278;2022-10-16T11:04:25;2.60;;;2.37;;
19758;SDS011;10038;42.662;23.278;2022-10-16T11:07:08;1.87;;;1.70;;
19758;SDS011;10038;42.662;23.278;2022-10-16T11:09:41;2.20;;;1.93;;
19758;SDS011;10038;42.662;23.278;2022-10-16T11:12:12;2.80;;;1.87;;
19758;SDS011;10038;42.662;23.278;2022-10-16T11:14:46;2.57;;;2.10;;
19758;SDS011;10038;42.662;23.278;2022-10-16T11:17:17;2.17;;;1.80;;
19758;SDS011;10038;42.662;23.278;2022-10-16T11:19:52;1.90;;;1.67;;
19758;SDS011;10038;42.662;23.278;2022-10-16T11:22:24;1.80;;;1.70;;
19758;SDS011;10038;42.662;23.278;2022-10-16T11:24:59;2.27;;;1.70;;
19758;SDS011;10038;42.662;23.278;2022-10-16T11:27:34;2.93;;;1.90;;
19758;SDS011;10038;42.662;23.278;2022-10-16T11:30:06;2.07;;;1.87;;
19758;SDS011;10038;42.662;23.278;2022-10-16T11:32:45;2.47;;;1.80;;
19758;SDS011;10038;42.662;23.278;2022-10-16T11:35:21;2.43;;;1.70;;
19758;SDS011;10038;42.662;23.278;2022-10-16T11:37:51;1.63;;;1.53;;
19758;SDS011;10038;42.662;23.278;2022-10-16T11:40:22;3.30;;;1.97;;
19758;SDS011;10038;42.662;23.278;2022-10-16T11:42:55;2.37;;;2.03;;
19758;SDS011;10038;42.662;23.278;2022-10-16T11:45:30;1.73;;;1.63;;
19758;SDS011;10038;42.662;23.278;2022-10-16T11:48:04;1.80;;;1.50;;
19758;SDS011;10038;42.662;23.278;2022-10-16T11:50:43;1.47;;;1.37;;
19758;SDS011;10038;42.662;23.278;2022-10-16T11:53:18;1.90;;;1.30;;
19758;SDS011;10038;42.662;23.278;2022-10-16T11:56:01;1.70;;;1.50;;
19758;SDS011;10038;42.662;23.278;2022-10-16T11:58:28;1.60;;;1.30;;
19758;SDS011;10038;42.662;23.278;2022-10-16T12:01:01;1.73;;;1.63;;
19758;SDS011;10038;42.662;23.278;2022-10-16T12:03:44;1.60;;;1.33;;
19758;SDS011;10038;42.662;23.278;2022-10-16T12:06:18;2.50;;;2.20;;
19758;SDS011;10038;42.662;23.278;2022-10-16T12:09:00;2.13;;;1.60;;
19758;SDS011;10038;42.662;23.278;2022-10-16T12:11:32;2.33;;;1.60;;
19758;SDS011;10038;42.662;23.278;2022-10-16T12:14:06;1.63;;;1.37;;
19758;SDS011;10038;42.662;23.278;2022-10-16T12:16:50;1.70;;;1.60;;
19758;SDS011;10038;42.662;23.278;2022-10-16T12:19:19;1.90;;;1.40;;
19758;SDS011;10038;42.662;23.278;2022-10-16T12:21:48;1.53;;;1.43;;
19758;SDS011;10038;42.662;23.278;2022-10-16T12:24:21;2.53;;;1.70;;
19758;SDS011;10038;42.662;23.278;2022-10-16T12:26:54;2.00;;;1.80;;
19758;SDS011;10038;42.662;23.278;2022-10-16T12:29:32;2.17;;;1.80;;
19758;SDS011;10038;42.662;23.278;2022-10-16T12:32:01;1.90;;;1.70;;
19758;SDS011;10038;42.662;23.278;2022-10-16T12:34:32;2.27;;;1.90;;
19758;SDS011;10038;42.662;23.278;2022-10-16T12:37:11;2.27;;;1.80;;
19758;SDS011;10038;42.662;23.278;2022-10-16T12:39:44;1.80;;;1.60;;
19758;SDS011;10038;42.662;23.278;2022-10-16T12:42:20;2.00;;;1.80;;
19758;SDS011;10038;42.662;23.278;2022-10-16T12:44:58;1.73;;;1.63;;
19758;SDS011;10038;42.662;23.278;2022-10-16T12:47:35;2.90;;;1.97;;
19758;SDS011;10038;42.662;23.278;2022-10-16T12:50:03;2.50;;;1.70;;
19758;SDS011;10038;42.662;23.278;2022-10-16T12:52:50;1.83;;;1.63;;
19758;SDS011;10038;42.662;23.278;2022-10-16T12:55:17;7.63;;;1.90;;
19758;SDS011;10038;42.662;23.278;2022-10-16T12:57:48;1.77;;;1.67;;
19758;SDS011;10038;42.662;23.278;2022-10-16T13:00:32;2.40;;;2.00;;
19758;SDS011;10038;42.662;23.278;2022-10-16T13:06:17;2.63;;;2.03;;
19758;SDS011;10038;42.662;23.278;2022-10-16T13:09:04;2.50;;;1.70;;
19758;SDS011;10038;42.662;23.278;2022-10-16T13:12:04;4.10;;;2.00;;
19758;SDS011;10038;42.662;23.278;2022-10-16T13:14:46;1.93;;;1.70;;
19758;SDS011;10038;42.662;23.278;2022-10-16T13:17:32;2.20;;;1.90;;
19758;SDS011;10038;42.662;23.278;2022-10-16T13:20:11;1.70;;;1.60;;
19758;SDS011;10038;42.662;23.278;2022-10-16T13:22:45;2.20;;;1.90;;
19758;SDS011;10038;42.662;23.278;2022-10-16T13:25:23;2.77;;;1.60;;
19758;SDS011;10038;42.662;23.278;2022-10-16T13:27:59;2.63;;;2.43;;
19758;SDS011;10038;42.662;23.278;2022-10-16T13:30:28;1.97;;;1.80;;
19758;SDS011;10038;42.662;23.278;2022-10-16T13:32:59;2.13;;;1.90;;
19758;SDS011;10038;42.662;23.278;2022-10-16T13:35:29;1.60;;;1.50;;
19758;SDS011;10038;42.662;23.278;2022-10-16T13:38:11;2.13;;;1.90;;
19758;SDS011;10038;42.662;23.278;2022-10-16T13:40:51;2.60;;;1.77;;
19758;SDS011;10038;42.662;23.278;2022-10-16T13:43:20;2.10;;;1.90;;
19758;SDS011;10038;42.662;23.278;2022-10-16T13:45:57;1.93;;;1.70;;
19758;SDS011;10038;42.662;23.278;2022-10-16T13:48:25;1.80;;;1.60;;
19758;SDS011;10038;42.662;23.278;2022-10-16T13:51:06;2.03;;;1.80;;
19758;SDS011;10038;42.662;23.278;2022-10-16T13:53:38;1.70;;;1.40;;
19758;SDS011;10038;42.662;23.278;2022-10-16T13:56:07;2.90;;;1.70;;
19758;SDS011;10038;42.662;23.278;2022-10-16T13:58:38;1.77;;;1.40;;
19758;SDS011;10038;42.662;23.278;2022-10-16T14:01:06;2.60;;;2.03;;
19758;SDS011;10038;42.662;23.278;2022-10-16T14:03:43;2.13;;;1.90;;
19758;SDS011;10038;42.662;23.278;2022-10-16T14:06:12;1.70;;;1.43;;
19758;SDS011;10038;42.662;23.278;2022-10-16T14:08:43;2.70;;;1.70;;
19758;SDS011;10038;42.662;23.278;2022-10-16T14:11:19;2.07;;;1.73;;
19758;SDS011;10038;42.662;23.278;2022-10-16T14:13:47;3.53;;;2.07;;
19758;SDS011;10038;42.662;23.278;2022-10-16T14:16:16;2.30;;;2.10;;
19758;SDS011;10038;42.662;23.278;2022-10-16T14:18:45;2.70;;;1.90;;
19758;SDS011;10038;42.662;23.278;2022-10-16T14:21:16;2.70;;;2.10;;
19758;SDS011;10038;42.662;23.278;2022-10-16T14:23:44;2.50;;;2.17;;
19758;SDS011;10038;42.662;23.278;2022-10-16T14:26:12;3.53;;;2.00;;
19758;SDS011;10038;42.662;23.278;2022-10-16T14:28:42;4.37;;;1.90;;
19758;SDS011;10038;42.662;23.278;2022-10-16T14:31:24;2.07;;;1.87;;
19758;SDS011;10038;42.662;23.278;2022-10-16T14:33:53;9.23;;;2.13;;
19758;SDS011;10038;42.662;23.278;2022-10-16T14:36:19;2.10;;;1.70;;
19758;SDS011;10038;42.662;23.278;2022-10-16T14:38:48;2.67;;;2.10;;
19758;SDS011;10038;42.662;23.278;2022-10-16T14:41:21;4.10;;;2.03;;
19758;SDS011;10038;42.662;23.278;2022-10-16T14:43:50;3.70;;;1.87;;
19758;SDS011;10038;42.662;23.278;2022-10-16T14:46:19;3.23;;;2.30;;
19758;SDS011;10038;42.662;23.278;2022-10-16T14:48:51;2.00;;;1.70;;
19758;SDS011;10038;42.662;23.278;2022-10-16T14:51:27;2.63;;;2.23;;
19758;SDS011;10038;42.662;23.278;2022-10-16T14:53:53;3.00;;;2.20;;
19758;SDS011;10038;42.662;23.278;2022-10-16T14:56:23;1.90;;;1.67;;
19758;SDS011;10038;42.662;23.278;2022-10-16T14:58:51;2.30;;;2.00;;
19758;SDS011;10038;42.662;23.278;2022-10-16T15:01:18;2.43;;;1.80;;
19758;SDS011;10038;42.662;23.278;2022-10-16T15:03:46;3.23;;;2.03;;
19758;SDS011;10038;42.662;23.278;2022-10-16T15:06:13;2.53;;;1.60;;
19758;SDS011;10038;42.662;23.278;2022-10-16T15:08:41;2.53;;;1.60;;